sensor_id;sensor_type;location;lat;lon;timestamp;temperature;humidity
6379;DHT22;3222;48.858;10.128;2023-07-13T00:00:03;21.40;96.00
6379;DHT22;3222;48.858;10.128;2023-07-13T00:02:35;21.30;96.30
6379;DHT22;3222;48.858;10.128;2023-07-13T00:05:01;21.30;96.30
6379;DHT22;3222;48.858;10.128;2023-07-13T00:07:27;21.40;96.40
6379;DHT22;3222;48.858;10.128;2023-07-13T00:09:52;21.40;96.20
6379;DHT22;3222;48.858;10.128;2023-07-13T00:12:25;21.40;96.10
6379;DHT22;3222;48.858;10.128;2023-07-13T00:14:52;21.50;96.00
6379;DHT22;3222;48.858;10.128;2023-07-13T00:17:17;21.50;95.80
6379;DHT22;3222;48.858;10.128;2023-07-13T00:19:43;21.40;95.80
6379;DHT22;3222;48.858;10.128;2023-07-13T00:22:08;21.40;95.90
6379;DHT22;3222;48.858;10.128;2023-07-13T00:24:34;21.30;96.00
6379;DHT22;3222;48.858;10.128;2023-07-13T00:27:01;21.20;96.20
6379;DHT22;3222;48.858;10.128;2023-07-13T00:29:27;21.10;96.30
6379;DHT22;3222;48.858;10.128;2023-07-13T00:31:52;21.10;96.30
6379;DHT22;3222;48.858;10.128;2023-07-13T00:34:18;21.10;96.40
6379;DHT22;3222;48.858;10.128;2023-07-13T00:36:44;21.10;96.40
6379;DHT22;3222;48.858;10.128;2023-07-13T00:39:09;21.10;96.40
6379;DHT22;3222;48.858;10.128;2023-07-13T00:41:35;21.00;96.40
6379;DHT22;3222;48.858;10.128;2023-07-13T00:44:03;21.00;96.50
6379;DHT22;3222;48.858;10.128;2023-07-13T00:46:31;21.00;96.60
6379;DHT22;3222;48.858;10.128;2023-07-13T00:49:02;21.00;96.50
6379;DHT22;3222;48.858;10.128;2023-07-13T00:51:36;21.00;96.60
6379;DHT22;3222;48.858;10.128;2023-07-13T00:54:06;20.90;96.40
6379;DHT22;3222;48.858;10.128;2023-07-13T00:56:33;21.00;96.50
6379;DHT22;3222;48.858;10.128;2023-07-13T00:59:00;20.90;96.50
6379;DHT22;3222;48.858;10.128;2023-07-13T01:01:27;21.00;96.50
6379;DHT22;3222;48.858;10.128;2023-07-13T01:03:53;21.00;96.20
6379;DHT22;3222;48.858;10.128;2023-07-13T01:06:19;21.00;96.20
6379;DHT22;3222;48.858;10.128;2023-07-13T01:08:45;20.90;96.30
6379;DHT22;3222;48.858;10.128;2023-07-13T01:11:11;20.90;96.40
6379;DHT22;3222;48.858;10.128;2023-07-13T01:13:37;20.90;96.30
6379;DHT22;3222;48.858;10.128;2023-07-13T01:16:11;21.00;96.30
6379;DHT22;3222;48.858;10.128;2023-07-13T01:18:38;21.00;96.30
6379;DHT22;3222;48.858;10.128;2023-07-13T01:21:04;21.00;96.00
6379;DHT22;3222;48.858;10.128;2023-07-13T01:23:32;21.00;96.10
6379;DHT22;3222;48.858;10.128;2023-07-13T01:25:58;21.00;96.10
6379;DHT22;3222;48.858;10.128;2023-07-13T01:28:28;21.00;96.00
6379;DHT22;3222;48.858;10.128;2023-07-13T01:30:55;21.00;96.00
6379;DHT22;3222;48.858;10.128;2023-07-13T01:33:22;20.90;96.00
6379;DHT22;3222;48.858;10.128;2023-07-13T01:35:48;20.90;96.10
6379;DHT22;3222;48.858;10.128;2023-07-13T01:38:17;20.90;95.90
6379;DHT22;3222;48.858;10.128;2023-07-13T01:40:44;20.90;95.90
6379;DHT22;3222;48.858;10.128;2023-07-13T01:43:10;20.90;95.90
6379;DHT22;3222;48.858;10.128;2023-07-13T01:45:36;21.00;95.60
6379;DHT22;3222;48.858;10.128;2023-07-13T01:48:02;20.90;95.70
6379;DHT22;3222;48.858;10.128;2023-07-13T01:50:28;20.80;95.70
6379;DHT22;3222;48.858;10.128;2023-07-13T01:52:53;20.80;95.80
6379;DHT22;3222;48.858;10.128;2023-07-13T01:55:20;20.70;95.90
6379;DHT22;3222;48.858;10.128;2023-07-13T01:57:46;20.70;95.90
6379;DHT22;3222;48.858;10.128;2023-07-13T02:00:13;20.70;95.90
6379;DHT22;3222;48.858;10.128;2023-07-13T02:02:42;20.70;95.90
6379;DHT22;3222;48.858;10.128;2023-07-13T02:05:09;20.60;95.90
6379;DHT22;3222;48.858;10.128;2023-07-13T02:07:35;20.70;95.90
6379;DHT22;3222;48.858;10.128;2023-07-13T02:10:03;20.70;95.70
6379;DHT22;3222;48.858;10.128;2023-07-13T02:12:29;20.60;95.60
6379;DHT22;3222;48.858;10.128;2023-07-13T02:14:55;20.60;95.70
6379;DHT22;3222;48.858;10.128;2023-07-13T02:17:21;20.50;95.60
6379;DHT22;3222;48.858;10.128;2023-07-13T02:19:47;20.50;95.80
6379;DHT22;3222;48.858;10.128;2023-07-13T02:22:13;20.50;95.80
6379;DHT22;3222;48.858;10.128;2023-07-13T02:24:39;20.40;95.90
6379;DHT22;3222;48.858;10.128;2023-07-13T02:27:05;20.30;95.90
6379;DHT22;3222;48.858;10.128;2023-07-13T02:29:31;20.30;95.90
6379;DHT22;3222;48.858;10.128;2023-07-13T02:31:56;20.30;95.90
6379;DHT22;3222;48.858;10.128;2023-07-13T02:34:24;20.30;95.90
6379;DHT22;3222;48.858;10.128;2023-07-13T02:36:49;20.20;95.90
6379;DHT22;3222;48.858;10.128;2023-07-13T02:39:15;20.20;95.90
6379;DHT22;3222;48.858;10.128;2023-07-13T02:41:41;20.10;95.90
6379;DHT22;3222;48.858;10.128;2023-07-13T02:44:07;20.20;96.00
6379;DHT22;3222;48.858;10.128;2023-07-13T02:46:35;20.10;95.80
6379;DHT22;3222;48.858;10.128;2023-07-13T02:49:02;20.10;95.80
6379;DHT22;3222;48.858;10.128;2023-07-13T02:51:28;20.10;96.20
6379;DHT22;3222;48.858;10.128;2023-07-13T02:53:54;20.00;95.80
6379;DHT22;3222;48.858;10.128;2023-07-13T02:56:25;20.00;95.90
6379;DHT22;3222;48.858;10.128;2023-07-13T02:58:51;20.00;95.90
6379;DHT22;3222;48.858;10.128;2023-07-13T03:01:17;19.90;95.90
6379;DHT22;3222;48.858;10.128;2023-07-13T03:03:45;19.80;95.80
6379;DHT22;3222;48.858;10.128;2023-07-13T03:06:12;19.80;95.80
6379;DHT22;3222;48.858;10.128;2023-07-13T03:08:45;19.70;95.90
6379;DHT22;3222;48.858;10.128;2023-07-13T03:11:14;19.60;95.90
6379;DHT22;3222;48.858;10.128;2023-07-13T03:13:42;19.60;95.90
6379;DHT22;3222;48.858;10.128;2023-07-13T03:16:10;19.60;96.00
6379;DHT22;3222;48.858;10.128;2023-07-13T03:18:37;19.50;96.00
6379;DHT22;3222;48.858;10.128;2023-07-13T03:21:06;19.50;96.10
6379;DHT22;3222;48.858;10.128;2023-07-13T03:23:32;19.50;96.10
6379;DHT22;3222;48.858;10.128;2023-07-13T03:26:11;19.40;96.00
6379;DHT22;3222;48.858;10.128;2023-07-13T03:28:40;19.40;96.20
6379;DHT22;3222;48.858;10.128;2023-07-13T03:31:10;19.30;96.00
6379;DHT22;3222;48.858;10.128;2023-07-13T03:33:36;19.30;96.10
6379;DHT22;3222;48.858;10.128;2023-07-13T03:36:05;19.30;96.10
6379;DHT22;3222;48.858;10.128;2023-07-13T03:38:32;19.30;96.00
6379;DHT22;3222;48.858;10.128;2023-07-13T03:40:58;19.30;96.00
6379;DHT22;3222;48.858;10.128;2023-07-13T03:43:25;19.30;96.00
6379;DHT22;3222;48.858;10.128;2023-07-13T03:45:51;19.30;95.90
6379;DHT22;3222;48.858;10.128;2023-07-13T03:48:17;19.20;95.90
6379;DHT22;3222;48.858;10.128;2023-07-13T03:50:42;19.30;95.90
6379;DHT22;3222;48.858;10.128;2023-07-13T03:53:08;19.20;95.90
6379;DHT22;3222;48.858;10.128;2023-07-13T03:55:34;19.20;95.90
6379;DHT22;3222;48.858;10.128;2023-07-13T03:58:31;19.20;96.00
6379;DHT22;3222;48.858;10.128;2023-07-13T04:01:04;19.20;96.00
6379;DHT22;3222;48.858;10.128;2023-07-13T04:03:31;19.10;95.90
6379;DHT22;3222;48.858;10.128;2023-07-13T04:05:59;19.10;95.80
6379;DHT22;3222;48.858;10.128;2023-07-13T04:08:27;19.10;95.80
6379;DHT22;3222;48.858;10.128;2023-07-13T04:10:53;19.20;95.80
6379;DHT22;3222;48.858;10.128;2023-07-13T04:13:19;19.20;95.70
6379;DHT22;3222;48.858;10.128;2023-07-13T04:15:45;19.10;95.70
6379;DHT22;3222;48.858;10.128;2023-07-13T04:18:11;19.10;95.70
6379;DHT22;3222;48.858;10.128;2023-07-13T04:20:36;19.10;95.80
6379;DHT22;3222;48.858;10.128;2023-07-13T04:23:02;19.00;95.80
6379;DHT22;3222;48.858;10.128;2023-07-13T04:25:28;19.00;95.90
6379;DHT22;3222;48.858;10.128;2023-07-13T04:27:54;19.00;95.80
6379;DHT22;3222;48.858;10.128;2023-07-13T04:30:20;19.00;95.90
6379;DHT22;3222;48.858;10.128;2023-07-13T04:32:46;18.90;95.80
6379;DHT22;3222;48.858;10.128;2023-07-13T04:35:12;19.00;95.90
6379;DHT22;3222;48.858;10.128;2023-07-13T04:37:40;19.00;95.90
6379;DHT22;3222;48.858;10.128;2023-07-13T04:40:06;19.00;95.90
6379;DHT22;3222;48.858;10.128;2023-07-13T04:42:32;19.00;95.80
6379;DHT22;3222;48.858;10.128;2023-07-13T04:44:59;19.10;95.80
6379;DHT22;3222;48.858;10.128;2023-07-13T04:47:25;19.10;95.60
6379;DHT22;3222;48.858;10.128;2023-07-13T04:49:51;19.00;95.60
6379;DHT22;3222;48.858;10.128;2023-07-13T04:52:16;19.00;95.60
6379;DHT22;3222;48.858;10.128;2023-07-13T04:54:42;19.10;95.30
6379;DHT22;3222;48.858;10.128;2023-07-13T04:57:08;19.10;95.20
6379;DHT22;3222;48.858;10.128;2023-07-13T04:59:34;19.10;95.30
6379;DHT22;3222;48.858;10.128;2023-07-13T05:02:00;19.10;95.30
6379;DHT22;3222;48.858;10.128;2023-07-13T05:04:27;19.10;95.20
6379;DHT22;3222;48.858;10.128;2023-07-13T05:06:53;19.10;95.20
6379;DHT22;3222;48.858;10.128;2023-07-13T05:09:19;19.10;95.20
6379;DHT22;3222;48.858;10.128;2023-07-13T05:11:44;19.20;94.90
6379;DHT22;3222;48.858;10.128;2023-07-13T05:14:10;19.10;94.90
6379;DHT22;3222;48.858;10.128;2023-07-13T05:16:36;19.10;95.10
6379;DHT22;3222;48.858;10.128;2023-07-13T05:19:02;19.00;95.10
6379;DHT22;3222;48.858;10.128;2023-07-13T05:21:28;19.10;95.20
6379;DHT22;3222;48.858;10.128;2023-07-13T05:23:54;19.10;95.10
6379;DHT22;3222;48.858;10.128;2023-07-13T05:26:20;19.10;94.90
6379;DHT22;3222;48.858;10.128;2023-07-13T05:28:46;19.10;95.10
6379;DHT22;3222;48.858;10.128;2023-07-13T05:31:12;19.10;95.20
6379;DHT22;3222;48.858;10.128;2023-07-13T05:33:38;19.10;95.20
6379;DHT22;3222;48.858;10.128;2023-07-13T05:36:04;19.10;95.00
6379;DHT22;3222;48.858;10.128;2023-07-13T05:38:30;19.20;94.80
6379;DHT22;3222;48.858;10.128;2023-07-13T05:40:57;19.20;95.00
6379;DHT22;3222;48.858;10.128;2023-07-13T05:43:23;19.10;95.10
6379;DHT22;3222;48.858;10.128;2023-07-13T05:45:53;19.10;95.10
6379;DHT22;3222;48.858;10.128;2023-07-13T05:48:18;19.10;95.10
6379;DHT22;3222;48.858;10.128;2023-07-13T05:50:44;19.10;95.10
6379;DHT22;3222;48.858;10.128;2023-07-13T05:53:11;19.10;95.00
6379;DHT22;3222;48.858;10.128;2023-07-13T05:55:41;19.10;95.10
6379;DHT22;3222;48.858;10.128;2023-07-13T05:58:07;19.10;95.20
6379;DHT22;3222;48.858;10.128;2023-07-13T06:00:33;19.00;95.10
6379;DHT22;3222;48.858;10.128;2023-07-13T06:02:59;19.10;95.20
6379;DHT22;3222;48.858;10.128;2023-07-13T06:05:24;19.00;95.20
6379;DHT22;3222;48.858;10.128;2023-07-13T06:07:50;18.90;95.30
6379;DHT22;3222;48.858;10.128;2023-07-13T06:10:16;19.00;95.30
6379;DHT22;3222;48.858;10.128;2023-07-13T06:12:42;19.00;95.50
6379;DHT22;3222;48.858;10.128;2023-07-13T06:15:08;19.00;95.40
6379;DHT22;3222;48.858;10.128;2023-07-13T06:17:33;19.00;95.50
6379;DHT22;3222;48.858;10.128;2023-07-13T06:19:59;19.00;95.50
6379;DHT22;3222;48.858;10.128;2023-07-13T06:22:24;19.00;95.40
6379;DHT22;3222;48.858;10.128;2023-07-13T06:24:51;19.00;95.50
6379;DHT22;3222;48.858;10.128;2023-07-13T06:27:17;19.00;95.50
6379;DHT22;3222;48.858;10.128;2023-07-13T06:29:42;19.00;95.40
6379;DHT22;3222;48.858;10.128;2023-07-13T06:32:10;19.00;95.30
6379;DHT22;3222;48.858;10.128;2023-07-13T06:34:36;19.10;95.20
6379;DHT22;3222;48.858;10.128;2023-07-13T06:37:02;19.10;94.80
6379;DHT22;3222;48.858;10.128;2023-07-13T06:39:27;19.10;94.80
6379;DHT22;3222;48.858;10.128;2023-07-13T06:41:53;19.20;94.60
6379;DHT22;3222;48.858;10.128;2023-07-13T06:44:19;19.20;94.60
6379;DHT22;3222;48.858;10.128;2023-07-13T06:46:44;19.20;94.80
6379;DHT22;3222;48.858;10.128;2023-07-13T06:49:10;19.20;94.90
6379;DHT22;3222;48.858;10.128;2023-07-13T06:51:36;19.10;94.80
6379;DHT22;3222;48.858;10.128;2023-07-13T06:54:03;19.10;94.80
6379;DHT22;3222;48.858;10.128;2023-07-13T06:56:28;19.10;94.80
6379;DHT22;3222;48.858;10.128;2023-07-13T06:58:54;19.10;94.80
6379;DHT22;3222;48.858;10.128;2023-07-13T07:01:20;19.10;94.70
6379;DHT22;3222;48.858;10.128;2023-07-13T07:03:46;19.20;94.60
6379;DHT22;3222;48.858;10.128;2023-07-13T07:06:20;19.20;94.60
6379;DHT22;3222;48.858;10.128;2023-07-13T07:08:49;19.30;94.60
6379;DHT22;3222;48.858;10.128;2023-07-13T07:11:22;19.20;94.50
6379;DHT22;3222;48.858;10.128;2023-07-13T07:13:48;19.40;94.80
6379;DHT22;3222;48.858;10.128;2023-07-13T07:16:14;19.30;94.60
6379;DHT22;3222;48.858;10.128;2023-07-13T07:18:40;19.30;94.70
6379;DHT22;3222;48.858;10.128;2023-07-13T07:21:06;19.30;94.80
6379;DHT22;3222;48.858;10.128;2023-07-13T07:23:32;19.30;94.80
6379;DHT22;3222;48.858;10.128;2023-07-13T07:25:57;19.40;94.80
6379;DHT22;3222;48.858;10.128;2023-07-13T07:28:23;19.40;94.70
6379;DHT22;3222;48.858;10.128;2023-07-13T07:30:52;19.50;94.90
6379;DHT22;3222;48.858;10.128;2023-07-13T07:33:18;19.50;94.90
6379;DHT22;3222;48.858;10.128;2023-07-13T07:35:44;19.50;94.90
6379;DHT22;3222;48.858;10.128;2023-07-13T07:38:09;19.50;94.80
6379;DHT22;3222;48.858;10.128;2023-07-13T07:40:39;19.50;94.80
6379;DHT22;3222;48.858;10.128;2023-07-13T07:43:09;19.40;94.90
6379;DHT22;3222;48.858;10.128;2023-07-13T07:45:36;19.50;95.00
6379;DHT22;3222;48.858;10.128;2023-07-13T07:48:04;19.50;94.80
6379;DHT22;3222;48.858;10.128;2023-07-13T07:50:30;19.50;94.50
6379;DHT22;3222;48.858;10.128;2023-07-13T07:52:56;19.40;94.60
6379;DHT22;3222;48.858;10.128;2023-07-13T07:55:22;19.50;94.20
6379;DHT22;3222;48.858;10.128;2023-07-13T07:57:48;19.50;94.30
6379;DHT22;3222;48.858;10.128;2023-07-13T08:00:15;19.50;94.30
6379;DHT22;3222;48.858;10.128;2023-07-13T08:02:41;19.50;94.50
6379;DHT22;3222;48.858;10.128;2023-07-13T08:05:08;19.50;94.50
6379;DHT22;3222;48.858;10.128;2023-07-13T08:07:35;19.50;94.50
6379;DHT22;3222;48.858;10.128;2023-07-13T08:10:01;19.60;94.50
6379;DHT22;3222;48.858;10.128;2023-07-13T08:12:27;19.60;94.30
6379;DHT22;3222;48.858;10.128;2023-07-13T08:14:53;19.60;94.30
6379;DHT22;3222;48.858;10.128;2023-07-13T08:17:26;19.50;94.50
6379;DHT22;3222;48.858;10.128;2023-07-13T08:19:52;19.40;94.60
6379;DHT22;3222;48.858;10.128;2023-07-13T08:22:18;19.60;94.60
6379;DHT22;3222;48.858;10.128;2023-07-13T08:24:44;19.50;94.40
6379;DHT22;3222;48.858;10.128;2023-07-13T08:27:11;19.50;94.40
6379;DHT22;3222;48.858;10.128;2023-07-13T08:29:37;19.60;94.20
6379;DHT22;3222;48.858;10.128;2023-07-13T08:32:05;19.50;94.20
6379;DHT22;3222;48.858;10.128;2023-07-13T08:34:31;19.70;93.50
6379;DHT22;3222;48.858;10.128;2023-07-13T08:36:57;19.70;93.70
6379;DHT22;3222;48.858;10.128;2023-07-13T08:39:22;19.60;93.50
6379;DHT22;3222;48.858;10.128;2023-07-13T08:41:54;19.60;93.70
6379;DHT22;3222;48.858;10.128;2023-07-13T08:47:02;19.60;93.90
6379;DHT22;3222;48.858;10.128;2023-07-13T08:49:28;19.70;94.10
6379;DHT22;3222;48.858;10.128;2023-07-13T08:54:44;19.70;93.70
6379;DHT22;3222;48.858;10.128;2023-07-13T08:57:16;19.70;93.70
6379;DHT22;3222;48.858;10.128;2023-07-13T08:59:43;19.80;93.70
6379;DHT22;3222;48.858;10.128;2023-07-13T09:02:33;19.90;93.50
6379;DHT22;3222;48.858;10.128;2023-07-13T09:05:03;20.00;93.40
6379;DHT22;3222;48.858;10.128;2023-07-13T09:10:29;20.30;92.70
6379;DHT22;3222;48.858;10.128;2023-07-13T09:15:48;20.40;92.50
6379;DHT22;3222;48.858;10.128;2023-07-13T09:18:30;20.50;92.60
6379;DHT22;3222;48.858;10.128;2023-07-13T09:21:02;20.50;91.90
6379;DHT22;3222;48.858;10.128;2023-07-13T09:23:30;20.60;91.90
6379;DHT22;3222;48.858;10.128;2023-07-13T09:26:06;20.60;92.00
6379;DHT22;3222;48.858;10.128;2023-07-13T09:28:41;20.60;92.00
6379;DHT22;3222;48.858;10.128;2023-07-13T09:31:16;20.60;91.90
6379;DHT22;3222;48.858;10.128;2023-07-13T09:33:43;20.50;92.00
6379;DHT22;3222;48.858;10.128;2023-07-13T09:36:22;20.50;91.90
6379;DHT22;3222;48.858;10.128;2023-07-13T09:44:11;20.60;92.10
6379;DHT22;3222;48.858;10.128;2023-07-13T09:46:40;20.70;92.20
6379;DHT22;3222;48.858;10.128;2023-07-13T09:49:10;20.70;92.10
6379;DHT22;3222;48.858;10.128;2023-07-13T09:51:37;20.70;92.10
6379;DHT22;3222;48.858;10.128;2023-07-13T09:54:04;20.70;91.90
6379;DHT22;3222;48.858;10.128;2023-07-13T09:56:30;20.60;91.90
6379;DHT22;3222;48.858;10.128;2023-07-13T09:58:57;20.70;91.70
6379;DHT22;3222;48.858;10.128;2023-07-13T10:01:38;20.60;92.10
6379;DHT22;3222;48.858;10.128;2023-07-13T10:04:14;20.60;91.50
6379;DHT22;3222;48.858;10.128;2023-07-13T10:06:42;20.70;91.80
6379;DHT22;3222;48.858;10.128;2023-07-13T10:09:08;20.80;91.80
6379;DHT22;3222;48.858;10.128;2023-07-13T10:11:35;20.90;91.50
6379;DHT22;3222;48.858;10.128;2023-07-13T10:14:15;21.00;91.40
6379;DHT22;3222;48.858;10.128;2023-07-13T10:16:44;21.00;91.20
6379;DHT22;3222;48.858;10.128;2023-07-13T10:19:21;21.00;91.30
6379;DHT22;3222;48.858;10.128;2023-07-13T10:21:56;21.10;91.10
6379;DHT22;3222;48.858;10.128;2023-07-13T10:24:27;21.20;91.00
6379;DHT22;3222;48.858;10.128;2023-07-13T10:27:03;21.20;90.80
6379;DHT22;3222;48.858;10.128;2023-07-13T10:29:35;21.20;90.60
6379;DHT22;3222;48.858;10.128;2023-07-13T10:32:03;21.20;90.50
6379;DHT22;3222;48.858;10.128;2023-07-13T10:34:30;21.10;90.40
6379;DHT22;3222;48.858;10.128;2023-07-13T10:36:56;21.20;90.70
6379;DHT22;3222;48.858;10.128;2023-07-13T10:39:26;21.30;90.70
6379;DHT22;3222;48.858;10.128;2023-07-13T10:41:55;21.40;90.60
6379;DHT22;3222;48.858;10.128;2023-07-13T10:44:29;21.50;90.20
6379;DHT22;3222;48.858;10.128;2023-07-13T10:46:57;21.50;90.50
6379;DHT22;3222;48.858;10.128;2023-07-13T10:49:26;21.60;90.20
6379;DHT22;3222;48.858;10.128;2023-07-13T10:51:52;21.60;89.30
6379;DHT22;3222;48.858;10.128;2023-07-13T10:54:31;21.60;90.20
6379;DHT22;3222;48.858;10.128;2023-07-13T10:57:14;21.70;90.00
6379;DHT22;3222;48.858;10.128;2023-07-13T10:59:43;21.60;90.20
6379;DHT22;3222;48.858;10.128;2023-07-13T11:02:25;21.70;89.50
6379;DHT22;3222;48.858;10.128;2023-07-13T11:04:54;21.80;88.90
6379;DHT22;3222;48.858;10.128;2023-07-13T11:07:29;21.90;86.80
6379;DHT22;3222;48.858;10.128;2023-07-13T11:09:56;21.90;83.50
6379;DHT22;3222;48.858;10.128;2023-07-13T11:20:31;21.80;87.60
6379;DHT22;3222;48.858;10.128;2023-07-13T11:23:16;21.90;86.40
6379;DHT22;3222;48.858;10.128;2023-07-13T11:25:43;21.90;86.90
6379;DHT22;3222;48.858;10.128;2023-07-13T11:36:06;22.00;86.80
6379;DHT22;3222;48.858;10.128;2023-07-13T11:38:47;22.10;86.80
6379;DHT22;3222;48.858;10.128;2023-07-13T11:41:31;22.10;86.10
6379;DHT22;3222;48.858;10.128;2023-07-13T11:46:33;22.30;86.70
6379;DHT22;3222;48.858;10.128;2023-07-13T11:48:59;22.30;84.80
6379;DHT22;3222;48.858;10.128;2023-07-13T11:51:32;22.30;86.50
6379;DHT22;3222;48.858;10.128;2023-07-13T11:54:03;22.30;87.10
6379;DHT22;3222;48.858;10.128;2023-07-13T11:56:29;22.20;87.00
6379;DHT22;3222;48.858;10.128;2023-07-13T11:58:56;22.40;86.00
6379;DHT22;3222;48.858;10.128;2023-07-13T12:01:32;22.40;86.30
6379;DHT22;3222;48.858;10.128;2023-07-13T12:04:21;22.40;85.60
6379;DHT22;3222;48.858;10.128;2023-07-13T12:06:56;22.40;86.40
6379;DHT22;3222;48.858;10.128;2023-07-13T12:09:22;22.40;85.70
6379;DHT22;3222;48.858;10.128;2023-07-13T12:11:51;22.20;85.60
6379;DHT22;3222;48.858;10.128;2023-07-13T12:14:17;22.20;86.30
6379;DHT22;3222;48.858;10.128;2023-07-13T12:16:45;22.10;87.20
6379;DHT22;3222;48.858;10.128;2023-07-13T12:19:23;22.20;86.10
6379;DHT22;3222;48.858;10.128;2023-07-13T12:21:54;22.20;85.70
6379;DHT22;3222;48.858;10.128;2023-07-13T12:24:22;22.20;86.70
6379;DHT22;3222;48.858;10.128;2023-07-13T12:27:06;22.30;86.20
6379;DHT22;3222;48.858;10.128;2023-07-13T12:29:33;22.40;85.70
6379;DHT22;3222;48.858;10.128;2023-07-13T12:31:58;22.40;86.30
6379;DHT22;3222;48.858;10.128;2023-07-13T12:34:26;22.40;86.20
6379;DHT22;3222;48.858;10.128;2023-07-13T12:36:58;22.50;85.50
6379;DHT22;3222;48.858;10.128;2023-07-13T12:39:46;22.50;84.40
6379;DHT22;3222;48.858;10.128;2023-07-13T12:42:25;22.50;84.70
6379;DHT22;3222;48.858;10.128;2023-07-13T12:47:23;22.50;85.50
6379;DHT22;3222;48.858;10.128;2023-07-13T12:49:54;22.60;84.50
6379;DHT22;3222;48.858;10.128;2023-07-13T12:52:32;22.60;85.80
6379;DHT22;3222;48.858;10.128;2023-07-13T12:55:19;22.60;86.10
6379;DHT22;3222;48.858;10.128;2023-07-13T12:57:54;22.70;86.20
6379;DHT22;3222;48.858;10.128;2023-07-13T13:00:30;22.70;86.40
6379;DHT22;3222;48.858;10.128;2023-07-13T13:03:02;22.80;86.30
6379;DHT22;3222;48.858;10.128;2023-07-13T13:05:30;22.80;85.90
6379;DHT22;3222;48.858;10.128;2023-07-13T13:07:57;22.90;86.30
6379;DHT22;3222;48.858;10.128;2023-07-13T13:10:23;22.90;85.60
6379;DHT22;3222;48.858;10.128;2023-07-13T13:12:50;22.80;86.60
6379;DHT22;3222;48.858;10.128;2023-07-13T13:15:16;22.90;85.30
6379;DHT22;3222;48.858;10.128;2023-07-13T13:17:42;23.00;85.60
6379;DHT22;3222;48.858;10.128;2023-07-13T13:20:16;23.00;86.00
6379;DHT22;3222;48.858;10.128;2023-07-13T13:22:42;23.10;86.10
6379;DHT22;3222;48.858;10.128;2023-07-13T13:25:11;23.10;85.80
6379;DHT22;3222;48.858;10.128;2023-07-13T13:27:39;23.10;86.00
6379;DHT22;3222;48.858;10.128;2023-07-13T13:30:11;23.00;86.20
6379;DHT22;3222;48.858;10.128;2023-07-13T13:32:48;23.10;86.50
6379;DHT22;3222;48.858;10.128;2023-07-13T13:35:19;23.00;86.20
6379;DHT22;3222;48.858;10.128;2023-07-13T13:37:46;23.00;85.90
6379;DHT22;3222;48.858;10.128;2023-07-13T13:40:22;22.90;86.90
6379;DHT22;3222;48.858;10.128;2023-07-13T13:42:53;22.90;86.70
6379;DHT22;3222;48.858;10.128;2023-07-13T13:45:20;23.00;86.60
6379;DHT22;3222;48.858;10.128;2023-07-13T13:47:47;23.00;86.30
6379;DHT22;3222;48.858;10.128;2023-07-13T13:50:19;23.00;87.10
6379;DHT22;3222;48.858;10.128;2023-07-13T13:52:45;23.20;87.20
6379;DHT22;3222;48.858;10.128;2023-07-13T13:55:21;23.30;86.50
6379;DHT22;3222;48.858;10.128;2023-07-13T13:57:48;23.30;86.50
6379;DHT22;3222;48.858;10.128;2023-07-13T14:00:15;23.40;85.20
6379;DHT22;3222;48.858;10.128;2023-07-13T14:02:46;23.40;85.40
6379;DHT22;3222;48.858;10.128;2023-07-13T14:05:22;23.40;86.00
6379;DHT22;3222;48.858;10.128;2023-07-13T14:07:48;23.40;85.90
6379;DHT22;3222;48.858;10.128;2023-07-13T14:10:16;23.50;85.10
6379;DHT22;3222;48.858;10.128;2023-07-13T14:12:44;23.60;83.20
6379;DHT22;3222;48.858;10.128;2023-07-13T14:15:31;23.50;84.70
6379;DHT22;3222;48.858;10.128;2023-07-13T14:17:57;23.40;84.30
6379;DHT22;3222;48.858;10.128;2023-07-13T14:20:24;23.50;84.30
6379;DHT22;3222;48.858;10.128;2023-07-13T14:22:52;23.40;83.60
6379;DHT22;3222;48.858;10.128;2023-07-13T14:25:19;23.40;83.80
6379;DHT22;3222;48.858;10.128;2023-07-13T14:27:56;23.30;84.20
6379;DHT22;3222;48.858;10.128;2023-07-13T14:30:25;23.40;83.90
6379;DHT22;3222;48.858;10.128;2023-07-13T14:32:51;23.50;84.20
6379;DHT22;3222;48.858;10.128;2023-07-13T14:35:19;23.40;84.90
6379;DHT22;3222;48.858;10.128;2023-07-13T14:37:46;23.40;85.10
6379;DHT22;3222;48.858;10.128;2023-07-13T14:40:38;23.50;85.20
6379;DHT22;3222;48.858;10.128;2023-07-13T14:43:04;23.60;84.80
6379;DHT22;3222;48.858;10.128;2023-07-13T14:45:31;23.70;84.60
6379;DHT22;3222;48.858;10.128;2023-07-13T14:47:57;23.60;83.30
6379;DHT22;3222;48.858;10.128;2023-07-13T14:50:32;23.60;83.70
6379;DHT22;3222;48.858;10.128;2023-07-13T14:52:58;23.50;84.40
6379;DHT22;3222;48.858;10.128;2023-07-13T14:55:24;23.40;84.70
6379;DHT22;3222;48.858;10.128;2023-07-13T14:57:52;23.40;85.60
6379;DHT22;3222;48.858;10.128;2023-07-13T15:00:20;23.60;85.90
6379;DHT22;3222;48.858;10.128;2023-07-13T15:02:51;23.80;83.20
6379;DHT22;3222;48.858;10.128;2023-07-13T15:05:23;23.90;83.50
6379;DHT22;3222;48.858;10.128;2023-07-13T15:07:53;24.10;82.60
6379;DHT22;3222;48.858;10.128;2023-07-13T15:10:22;24.30;83.00
6379;DHT22;3222;48.858;10.128;2023-07-13T15:12:48;24.40;82.10
6379;DHT22;3222;48.858;10.128;2023-07-13T15:15:14;24.30;82.60
6379;DHT22;3222;48.858;10.128;2023-07-13T15:17:42;24.20;83.10
6379;DHT22;3222;48.858;10.128;2023-07-13T15:20:15;24.20;82.90
6379;DHT22;3222;48.858;10.128;2023-07-13T15:22:41;24.10;83.10
6379;DHT22;3222;48.858;10.128;2023-07-13T15:25:17;24.00;82.70
6379;DHT22;3222;48.858;10.128;2023-07-13T15:27:43;23.90;83.00
6379;DHT22;3222;48.858;10.128;2023-07-13T15:30:09;23.80;83.60
6379;DHT22;3222;48.858;10.128;2023-07-13T15:32:35;23.80;82.70
6379;DHT22;3222;48.858;10.128;2023-07-13T15:35:20;23.80;82.60
6379;DHT22;3222;48.858;10.128;2023-07-13T15:37:47;23.80;82.50
6379;DHT22;3222;48.858;10.128;2023-07-13T15:40:14;23.70;82.00
6379;DHT22;3222;48.858;10.128;2023-07-13T15:42:44;23.70;81.50
6379;DHT22;3222;48.858;10.128;2023-07-13T15:45:23;23.70;82.00
6379;DHT22;3222;48.858;10.128;2023-07-13T15:47:53;23.80;82.10
6379;DHT22;3222;48.858;10.128;2023-07-13T15:50:24;23.70;82.00
6379;DHT22;3222;48.858;10.128;2023-07-13T15:52:52;23.70;82.10
6379;DHT22;3222;48.858;10.128;2023-07-13T15:55:18;23.60;82.80
6379;DHT22;3222;48.858;10.128;2023-07-13T15:57:51;23.40;82.80
6379;DHT22;3222;48.858;10.128;2023-07-13T16:00:25;23.20;82.70
6379;DHT22;3222;48.858;10.128;2023-07-13T16:02:51;23.30;83.10
6379;DHT22;3222;48.858;10.128;2023-07-13T16:05:18;23.40;81.60
6379;DHT22;3222;48.858;10.128;2023-07-13T16:07:45;23.50;81.30
6379;DHT22;3222;48.858;10.128;2023-07-13T16:10:32;23.70;81.30
6379;DHT22;3222;48.858;10.128;2023-07-13T16:12:59;23.70;80.90
6379;DHT22;3222;48.858;10.128;2023-07-13T16:15:25;23.70;80.00
6379;DHT22;3222;48.858;10.128;2023-07-13T16:17:51;23.60;80.10
6379;DHT22;3222;48.858;10.128;2023-07-13T16:20:18;23.60;80.70
6379;DHT22;3222;48.858;10.128;2023-07-13T16:22:49;23.40;80.80
6379;DHT22;3222;48.858;10.128;2023-07-13T16:25:20;23.30;81.40
6379;DHT22;3222;48.858;10.128;2023-07-13T16:27:47;23.20;82.30
6379;DHT22;3222;48.858;10.128;2023-07-13T16:30:20;23.00;82.70